sensor_id;sensor_type;location;lat;lon;timestamp;P1;durP1;ratioP1;P2;durP2;ratioP2
19235;SDS011;9752;54.270;12.470;2022-12-07T00:04:32;11.33;;;9.50;;
19235;SDS011;9752;54.270;12.470;2022-12-07T00:09:34;11.57;;;9.43;;
19235;SDS011;9752;54.270;12.470;2022-12-07T00:14:37;13.57;;;10.37;;
19235;SDS011;9752;54.270;12.470;2022-12-07T00:19:39;11.80;;;10.33;;
19235;SDS011;9752;54.270;12.470;2022-12-07T00:24:40;10.77;;;8.77;;
19235;SDS011;9752;54.270;12.470;2022-12-07T00:29:43;12.93;;;9.57;;
19235;SDS011;9752;54.270;12.470;2022-12-07T00:34:45;14.43;;;9.37;;
19235;SDS011;9752;54.270;12.470;2022-12-07T00:39:47;14.87;;;10.93;;
19235;SDS011;9752;54.270;12.470;2022-12-07T00:44:50;15.57;;;10.67;;
19235;SDS011;9752;54.270;12.470;2022-12-07T00:49:51;14.10;;;9.87;;
19235;SDS011;9752;54.270;12.470;2022-12-07T00:54:53;18.87;;;11.33;;
19235;SDS011;9752;54.270;12.470;2022-12-07T00:59:56;15.07;;;11.20;;
19235;SDS011;9752;54.270;12.470;2022-12-07T01:04:58;21.43;;;13.10;;
19235;SDS011;9752;54.270;12.470;2022-12-07T01:10:00;15.97;;;11.23;;
19235;SDS011;9752;54.270;12.470;2022-12-07T01:15:03;19.03;;;12.30;;
19235;SDS011;9752;54.270;12.470;2022-12-07T01:20:06;14.13;;;10.90;;
19235;SDS011;9752;54.270;12.470;2022-12-07T01:25:10;18.50;;;11.80;;
19235;SDS011;9752;54.270;12.470;2022-12-07T01:30:14;19.17;;;12.37;;
19235;SDS011;9752;54.270;12.470;2022-12-07T01:35:16;17.47;;;12.57;;
19235;SDS011;9752;54.270;12.470;2022-12-07T01:40:18;17.03;;;12.37;;
19235;SDS011;9752;54.270;12.470;2022-12-07T01:50:47;17.57;;;12.37;;
19235;SDS011;9752;54.270;12.470;2022-12-07T01:55:51;20.93;;;13.63;;
19235;SDS011;9752;54.270;12.470;2022-12-07T02:00:55;21.97;;;13.13;;
19235;SDS011;9752;54.270;12.470;2022-12-07T02:05:57;18.37;;;11.60;;
19235;SDS011;9752;54.270;12.470;2022-12-07T02:11:02;18.33;;;12.30;;
19235;SDS011;9752;54.270;12.470;2022-12-07T02:16:10;18.33;;;11.53;;
19235;SDS011;9752;54.270;12.470;2022-12-07T02:21:23;16.77;;;12.57;;
19235;SDS011;9752;54.270;12.470;2022-12-07T02:32:15;17.50;;;12.00;;
19235;SDS011;9752;54.270;12.470;2022-12-07T02:37:27;18.17;;;12.27;;
19235;SDS011;9752;54.270;12.470;2022-12-07T02:42:36;20.20;;;12.50;;
19235;SDS011;9752;54.270;12.470;2022-12-07T02:47:43;16.60;;;11.17;;
19235;SDS011;9752;54.270;12.470;2022-12-07T02:52:48;18.67;;;13.43;;
19235;SDS011;9752;54.270;12.470;2022-12-07T02:57:54;17.77;;;11.83;;
19235;SDS011;9752;54.270;12.470;2022-12-07T03:03:09;17.70;;;12.20;;
19235;SDS011;9752;54.270;12.470;2022-12-07T03:08:14;19.33;;;11.50;;
19235;SDS011;9752;54.270;12.470;2022-12-07T03:13:23;26.53;;;15.40;;
19235;SDS011;9752;54.270;12.470;2022-12-07T03:18:32;24.90;;;15.93;;
19235;SDS011;9752;54.270;12.470;2022-12-07T03:23:37;23.63;;;14.30;;
19235;SDS011;9752;54.270;12.470;2022-12-07T03:28:42;17.93;;;11.17;;
19235;SDS011;9752;54.270;12.470;2022-12-07T03:33:49;19.37;;;12.47;;
19235;SDS011;9752;54.270;12.470;2022-12-07T03:39:00;18.23;;;12.60;;
19235;SDS011;9752;54.270;12.470;2022-12-07T03:44:10;18.67;;;11.50;;
19235;SDS011;9752;54.270;12.470;2022-12-07T03:49:17;18.83;;;12.27;;
19235;SDS011;9752;54.270;12.470;2022-12-07T03:54:24;18.53;;;11.47;;
19235;SDS011;9752;54.270;12.470;2022-12-07T03:59:31;32.53;;;17.23;;
19235;SDS011;9752;54.270;12.470;2022-12-07T04:04:36;17.50;;;11.80;;
19235;SDS011;9752;54.270;12.470;2022-12-07T04:09:37;21.43;;;13.63;;
19235;SDS011;9752;54.270;12.470;2022-12-07T04:14:39;17.23;;;10.77;;
19235;SDS011;9752;54.270;12.470;2022-12-07T04:19:42;21.23;;;13.53;;
19235;SDS011;9752;54.270;12.470;2022-12-07T04:24:44;19.57;;;12.33;;
19235;SDS011;9752;54.270;12.470;2022-12-07T04:29:45;19.90;;;13.10;;
19235;SDS011;9752;54.270;12.470;2022-12-07T04:34:48;20.37;;;12.70;;
19235;SDS011;9752;54.270;12.470;2022-12-07T04:39:50;26.23;;;14.80;;
19235;SDS011;9752;54.270;12.470;2022-12-07T04:44:52;34.67;;;16.63;;
19235;SDS011;9752;54.270;12.470;2022-12-07T04:49:55;18.93;;;11.87;;
19235;SDS011;9752;54.270;12.470;2022-12-07T04:54:57;25.60;;;14.07;;
19235;SDS011;9752;54.270;12.470;2022-12-07T04:59:59;28.43;;;15.40;;
19235;SDS011;9752;54.270;12.470;2022-12-07T05:05:02;21.33;;;13.23;;
19235;SDS011;9752;54.270;12.470;2022-12-07T05:10:04;24.47;;;13.77;;
19235;SDS011;9752;54.270;12.470;2022-12-07T05:15:07;23.47;;;13.43;;
19235;SDS011;9752;54.270;12.470;2022-12-07T05:20:11;26.77;;;14.87;;
19235;SDS011;9752;54.270;12.470;2022-12-07T05:25:13;27.33;;;16.13;;
19235;SDS011;9752;54.270;12.470;2022-12-07T05:30:15;24.97;;;15.63;;
19235;SDS011;9752;54.270;12.470;2022-12-07T05:35:18;24.23;;;12.87;;
19235;SDS011;9752;54.270;12.470;2022-12-07T05:40:20;32.27;;;17.43;;
19235;SDS011;9752;54.270;12.470;2022-12-07T05:45:22;40.50;;;19.20;;
19235;SDS011;9752;54.270;12.470;2022-12-07T05:50:25;30.53;;;17.07;;
19235;SDS011;9752;54.270;12.470;2022-12-07T05:55:34;33.90;;;16.57;;
19235;SDS011;9752;54.270;12.470;2022-12-07T06:00:35;42.13;;;18.93;;
19235;SDS011;9752;54.270;12.470;2022-12-07T06:05:38;42.87;;;19.37;;
19235;SDS011;9752;54.270;12.470;2022-12-07T06:10:40;50.93;;;21.17;;
19235;SDS011;9752;54.270;12.470;2022-12-07T06:15:42;34.97;;;16.13;;
19235;SDS011;9752;54.270;12.470;2022-12-07T06:20:45;47.40;;;19.80;;
19235;SDS011;9752;54.270;12.470;2022-12-07T06:25:47;41.40;;;20.30;;
19235;SDS011;9752;54.270;12.470;2022-12-07T06:30:56;50.13;;;20.27;;
19235;SDS011;9752;54.270;12.470;2022-12-07T06:35:59;41.60;;;19.07;;
19235;SDS011;9752;54.270;12.470;2022-12-07T06:41:01;44.90;;;20.80;;
19235;SDS011;9752;54.270;12.470;2022-12-07T06:46:03;46.40;;;19.90;;
19235;SDS011;9752;54.270;12.470;2022-12-07T06:51:06;39.60;;;19.60;;
19235;SDS011;9752;54.270;12.470;2022-12-07T06:56:08;37.23;;;18.83;;
19235;SDS011;9752;54.270;12.470;2022-12-07T07:01:09;43.87;;;19.80;;
19235;SDS011;9752;54.270;12.470;2022-12-07T07:06:13;41.33;;;20.17;;
19235;SDS011;9752;54.270;12.470;2022-12-07T07:11:15;42.90;;;21.13;;
19235;SDS011;9752;54.270;12.470;2022-12-07T07:16:17;38.40;;;20.27;;
19235;SDS011;9752;54.270;12.470;2022-12-07T07:21:20;38.87;;;19.00;;
19235;SDS011;9752;54.270;12.470;2022-12-07T07:26:22;37.03;;;19.07;;
19235;SDS011;9752;54.270;12.470;2022-12-07T07:31:23;38.23;;;18.40;;
19235;SDS011;9752;54.270;12.470;2022-12-07T07:36:27;41.10;;;20.87;;
19235;SDS011;9752;54.270;12.470;2022-12-07T07:41:28;39.47;;;20.77;;
19235;SDS011;9752;54.270;12.470;2022-12-07T07:46:30;35.13;;;18.97;;
19235;SDS011;9752;54.270;12.470;2022-12-07T07:51:34;40.90;;;20.27;;
19235;SDS011;9752;54.270;12.470;2022-12-07T07:56:36;33.07;;;18.50;;
19235;SDS011;9752;54.270;12.470;2022-12-07T08:01:38;32.43;;;17.83;;
19235;SDS011;9752;54.270;12.470;2022-12-07T08:06:41;31.70;;;16.33;;
19235;SDS011;9752;54.270;12.470;2022-12-07T08:11:43;25.50;;;14.27;;
19235;SDS011;9752;54.270;12.470;2022-12-07T08:16:45;22.93;;;14.03;;
19235;SDS011;9752;54.270;12.470;2022-12-07T08:21:48;18.33;;;11.43;;
19235;SDS011;9752;54.270;12.470;2022-12-07T08:26:50;15.80;;;9.50;;
19235;SDS011;9752;54.270;12.470;2022-12-07T08:31:51;10.40;;;6.90;;
19235;SDS011;9752;54.270;12.470;2022-12-07T08:36:55;5.33;;;4.43;;
19235;SDS011;9752;54.270;12.470;2022-12-07T08:41:56;4.77;;;4.03;;
19235;SDS011;9752;54.270;12.470;2022-12-07T08:46:58;4.90;;;4.57;;
19235;SDS011;9752;54.270;12.470;2022-12-07T08:52:05;4.70;;;4.40;;
19235;SDS011;9752;54.270;12.470;2022-12-07T08:57:07;4.73;;;4.43;;
19235;SDS011;9752;54.270;12.470;2022-12-07T09:02:10;5.40;;;5.10;;
19235;SDS011;9752;54.270;12.470;2022-12-07T09:07:13;5.00;;;4.70;;
19235;SDS011;9752;54.270;12.470;2022-12-07T09:12:15;5.63;;;5.13;;
19235;SDS011;9752;54.270;12.470;2022-12-07T09:17:16;5.43;;;5.03;;
19235;SDS011;9752;54.270;12.470;2022-12-07T09:22:19;5.77;;;5.37;;
19235;SDS011;9752;54.270;12.470;2022-12-07T09:27:21;6.20;;;5.70;;
19235;SDS011;9752;54.270;12.470;2022-12-07T09:32:23;6.47;;;5.53;;
19235;SDS011;9752;54.270;12.470;2022-12-07T09:37:26;6.00;;;5.40;;
19235;SDS011;9752;54.270;12.470;2022-12-07T09:42:28;5.57;;;4.30;;
19235;SDS011;9752;54.270;12.470;2022-12-07T09:47:33;5.10;;;4.60;;
19235;SDS011;9752;54.270;12.470;2022-12-07T09:52:36;4.07;;;3.77;;
19235;SDS011;9752;54.270;12.470;2022-12-07T09:57:38;4.97;;;4.67;;
19235;SDS011;9752;54.270;12.470;2022-12-07T10:02:41;5.57;;;5.20;;
19235;SDS011;9752;54.270;12.470;2022-12-07T10:07:47;5.27;;;4.90;;
19235;SDS011;9752;54.270;12.470;2022-12-07T10:12:56;6.83;;;5.27;;
19235;SDS011;9752;54.270;12.470;2022-12-07T10:17:59;5.70;;;4.53;;
19235;SDS011;9752;54.270;12.470;2022-12-07T10:23:03;6.17;;;5.57;;
19235;SDS011;9752;54.270;12.470;2022-12-07T10:28:13;5.73;;;5.20;;
19235;SDS011;9752;54.270;12.470;2022-12-07T10:33:27;6.23;;;5.73;;
19235;SDS011;9752;54.270;12.470;2022-12-07T10:38:35;7.07;;;6.37;;
19235;SDS011;9752;54.270;12.470;2022-12-07T10:43:50;6.60;;;6.30;;
19235;SDS011;9752;54.270;12.470;2022-12-07T10:48:55;6.87;;;6.47;;
19235;SDS011;9752;54.270;12.470;2022-12-07T10:54:10;6.20;;;5.87;;
19235;SDS011;9752;54.270;12.470;2022-12-07T11:04:52;7.30;;;6.90;;
19235;SDS011;9752;54.270;12.470;2022-12-07T11:10:07;6.60;;;6.40;;
19235;SDS011;9752;54.270;12.470;2022-12-07T11:15:16;8.40;;;8.10;;
19235;SDS011;9752;54.270;12.470;2022-12-07T11:20:24;8.43;;;8.13;;
19235;SDS011;9752;54.270;12.470;2022-12-07T11:25:39;7.60;;;7.30;;
19235;SDS011;9752;54.270;12.470;2022-12-07T11:30:50;7.90;;;7.60;;
19235;SDS011;9752;54.270;12.470;2022-12-07T11:36:05;7.80;;;7.40;;
19235;SDS011;9752;54.270;12.470;2022-12-07T11:41:20;7.80;;;7.40;;
19235;SDS011;9752;54.270;12.470;2022-12-07T11:46:43;7.67;;;6.97;;
19235;SDS011;9752;54.270;12.470;2022-12-07T11:51:48;6.53;;;6.03;;
19235;SDS011;9752;54.270;12.470;2022-12-07T11:56:56;6.57;;;6.17;;
19235;SDS011;9752;54.270;12.470;2022-12-07T12:02:09;6.57;;;5.97;;
19235;SDS011;9752;54.270;12.470;2022-12-07T12:07:16;7.00;;;6.47;;
19235;SDS011;9752;54.270;12.470;2022-12-07T12:23:27;4.87;;;3.67;;
19235;SDS011;9752;54.270;12.470;2022-12-07T12:28:40;4.57;;;3.30;;
19235;SDS011;9752;54.270;12.470;2022-12-07T12:33:50;4.30;;;4.00;;
19235;SDS011;9752;54.270;12.470;2022-12-07T12:39:11;4.93;;;4.17;;
19235;SDS011;9752;54.270;12.470;2022-12-07T12:50:19;5.67;;;3.77;;
19235;SDS011;9752;54.270;12.470;2022-12-07T12:55:26;3.80;;;3.50;;
19235;SDS011;9752;54.270;12.470;2022-12-07T13:01:31;3.50;;;3.30;;
19235;SDS011;9752;54.270;12.470;2022-12-07T13:06:34;5.23;;;3.20;;
19235;SDS011;9752;54.270;12.470;2022-12-07T13:11:40;3.67;;;3.37;;
19235;SDS011;9752;54.270;12.470;2022-12-07T13:16:46;5.37;;;4.10;;
19235;SDS011;9752;54.270;12.470;2022-12-07T13:21:49;6.17;;;4.23;;
19235;SDS011;9752;54.270;12.470;2022-12-07T13:26:51;4.90;;;4.10;;
19235;SDS011;9752;54.270;12.470;2022-12-07T13:31:58;7.17;;;4.57;;
19235;SDS011;9752;54.270;12.470;2022-12-07T13:37:02;4.70;;;4.30;;
19235;SDS011;9752;54.270;12.470;2022-12-07T13:42:15;7.13;;;5.63;;
19235;SDS011;9752;54.270;12.470;2022-12-07T13:47:30;5.47;;;5.07;;
19235;SDS011;9752;54.270;12.470;2022-12-07T13:52:42;5.40;;;5.20;;
19235;SDS011;9752;54.270;12.470;2022-12-07T13:57:45;4.93;;;4.13;;
19235;SDS011;9752;54.270;12.470;2022-12-07T14:02:56;5.40;;;5.00;;
19235;SDS011;9752;54.270;12.470;2022-12-07T14:08:02;4.40;;;4.20;;
19235;SDS011;9752;54.270;12.470;2022-12-07T14:13:25;6.10;;;4.50;;
19235;SDS011;9752;54.270;12.470;2022-12-07T14:18:40;4.50;;;4.20;;
19235;SDS011;9752;54.270;12.470;2022-12-07T14:23:43;5.90;;;5.40;;
19235;SDS011;9752;54.270;12.470;2022-12-07T14:28:46;5.63;;;5.10;;
19235;SDS011;9752;54.270;12.470;2022-12-07T14:33:48;6.57;;;5.87;;
19235;SDS011;9752;54.270;12.470;2022-12-07T14:38:51;4.93;;;4.60;;
19235;SDS011;9752;54.270;12.470;2022-12-07T14:43:56;4.00;;;3.80;;
19235;SDS011;9752;54.270;12.470;2022-12-07T14:48:58;4.00;;;3.70;;
19235;SDS011;9752;54.270;12.470;2022-12-07T14:54:01;4.30;;;3.97;;
19235;SDS011;9752;54.270;12.470;2022-12-07T14:59:05;3.50;;;3.40;;
19235;SDS011;9752;54.270;12.470;2022-12-07T15:04:06;4.03;;;3.10;;
19235;SDS011;9752;54.270;12.470;2022-12-07T15:09:09;4.10;;;3.70;;
19235;SDS011;9752;54.270;12.470;2022-12-07T15:14:12;6.40;;;3.03;;
19235;SDS011;9752;54.270;12.470;2022-12-07T15:19:14;2.83;;;2.67;;
19235;SDS011;9752;54.270;12.470;2022-12-07T15:24:18;2.50;;;2.30;;
19235;SDS011;9752;54.270;12.470;2022-12-07T15:29:21;3.33;;;2.93;;
19235;SDS011;9752;54.270;12.470;2022-12-07T15:34:23;4.30;;;3.93;;
19235;SDS011;9752;54.270;12.470;2022-12-07T15:39:28;2.87;;;2.77;;
19235;SDS011;9752;54.270;12.470;2022-12-07T15:44:29;3.03;;;2.83;;
19235;SDS011;9752;54.270;12.470;2022-12-07T15:49:48;3.77;;;2.60;;
19235;SDS011;9752;54.270;12.470;2022-12-07T15:54:52;4.33;;;2.97;;
19235;SDS011;9752;54.270;12.470;2022-12-07T15:59:53;7.13;;;3.10;;
19235;SDS011;9752;54.270;12.470;2022-12-07T16:04:55;4.03;;;3.63;;
19235;SDS011;9752;54.270;12.470;2022-12-07T16:09:58;5.40;;;4.17;;
19235;SDS011;9752;54.270;12.470;2022-12-07T16:15:00;10.33;;;5.60;;
19235;SDS011;9752;54.270;12.470;2022-12-07T16:20:02;5.53;;;5.03;;
19235;SDS011;9752;54.270;12.470;2022-12-07T16:25:07;6.70;;;3.93;;
19235;SDS011;9752;54.270;12.470;2022-12-07T16:30:11;4.67;;;2.40;;
19235;SDS011;9752;54.270;12.470;2022-12-07T16:35:13;4.07;;;3.40;;
19235;SDS011;9752;54.270;12.470;2022-12-07T16:40:17;3.83;;;3.40;;
19235;SDS011;9752;54.270;12.470;2022-12-07T16:45:18;3.50;;;3.30;;
19235;SDS011;9752;54.270;12.470;2022-12-07T16:50:20;4.87;;;4.37;;
19235;SDS011;9752;54.270;12.470;2022-12-07T16:55:23;7.90;;;4.77;;
19235;SDS011;9752;54.270;12.470;2022-12-07T17:00:25;4.33;;;3.97;;
19235;SDS011;9752;54.270;12.470;2022-12-07T17:05:27;4.63;;;3.60;;
19235;SDS011;9752;54.270;12.470;2022-12-07T17:10:30;5.47;;;4.40;;
19235;SDS011;9752;54.270;12.470;2022-12-07T17:15:35;4.57;;;4.27;;
19235;SDS011;9752;54.270;12.470;2022-12-07T17:20:37;5.23;;;4.83;;
19235;SDS011;9752;54.270;12.470;2022-12-07T17:25:40;4.70;;;4.20;;
19235;SDS011;9752;54.270;12.470;2022-12-07T17:30:42;5.20;;;4.90;;
19235;SDS011;9752;54.270;12.470;2022-12-07T17:35:43;4.63;;;4.37;;
19235;SDS011;9752;54.270;12.470;2022-12-07T17:40:46;4.97;;;4.67;;
19235;SDS011;9752;54.270;12.470;2022-12-07T17:45:48;4.93;;;4.60;;
19235;SDS011;9752;54.270;12.470;2022-12-07T17:50:50;5.67;;;5.27;;
19235;SDS011;9752;54.270;12.470;2022-12-07T17:56:12;4.70;;;4.40;;
19235;SDS011;9752;54.270;12.470;2022-12-07T18:01:13;9.60;;;5.60;;
19235;SDS011;9752;54.270;12.470;2022-12-07T18:06:15;4.50;;;4.30;;
19235;SDS011;9752;54.270;12.470;2022-12-07T18:11:18;4.90;;;4.53;;
19235;SDS011;9752;54.270;12.470;2022-12-07T18:16:20;4.17;;;3.97;;
19235;SDS011;9752;54.270;12.470;2022-12-07T18:21:27;4.60;;;4.20;;
19235;SDS011;9752;54.270;12.470;2022-12-07T18:26:32;5.60;;;4.00;;
19235;SDS011;9752;54.270;12.470;2022-12-07T18:31:36;7.67;;;4.60;;
19235;SDS011;9752;54.270;12.470;2022-12-07T18:36:38;6.07;;;5.67;;
19235;SDS011;9752;54.270;12.470;2022-12-07T18:41:43;5.50;;;5.00;;
19235;SDS011;9752;54.270;12.470;2022-12-07T18:46:45;5.10;;;4.80;;
19235;SDS011;9752;54.270;12.470;2022-12-07T18:51:47;5.30;;;5.10;;
19235;SDS011;9752;54.270;12.470;2022-12-07T18:56:51;5.43;;;5.10;;
19235;SDS011;9752;54.270;12.470;2022-12-07T19:01:54;5.17;;;4.90;;
19235;SDS011;9752;54.270;12.470;2022-12-07T19:06:56;4.83;;;4.63;;
19235;SDS011;9752;54.270;12.470;2022-12-07T19:11:59;4.87;;;4.67;;
19235;SDS011;9752;54.270;12.470;2022-12-07T19:17:04;6.40;;;5.87;;
19235;SDS011;9752;54.270;12.470;2022-12-07T19:22:07;5.77;;;5.30;;
19235;SDS011;9752;54.270;12.470;2022-12-07T19:27:11;5.73;;;5.43;;
19235;SDS011;9752;54.270;12.470;2022-12-07T19:32:14;5.77;;;5.47;;
19235;SDS011;9752;54.270;12.470;2022-12-07T19:37:17;7.40;;;5.40;;
19235;SDS011;9752;54.270;12.470;2022-12-07T19:42:20;5.90;;;5.50;;
19235;SDS011;9752;54.270;12.470;2022-12-07T19:47:21;5.70;;;5.40;;
19235;SDS011;9752;54.270;12.470;2022-12-07T19:52:23;5.97;;;5.40;;
19235;SDS011;9752;54.270;12.470;2022-12-07T19:57:27;5.50;;;5.20;;
19235;SDS011;9752;54.270;12.470;2022-12-07T20:02:28;6.03;;;5.73;;
19235;SDS011;9752;54.270;12.470;2022-12-07T20:07:30;5.07;;;4.87;;
19235;SDS011;9752;54.270;12.470;2022-12-07T20:12:37;4.73;;;4.53;;
19235;SDS011;9752;54.270;12.470;2022-12-07T20:17:56;4.70;;;4.40;;
19235;SDS011;9752;54.270;12.470;2022-12-07T20:22:58;6.07;;;5.60;;
19235;SDS011;9752;54.270;12.470;2022-12-07T20:28:02;5.03;;;4.60;;
19235;SDS011;9752;54.270;12.470;2022-12-07T20:33:04;4.10;;;3.90;;
19235;SDS011;9752;54.270;12.470;2022-12-07T20:38:05;4.10;;;3.90;;
19235;SDS011;9752;54.270;12.470;2022-12-07T20:43:08;4.20;;;3.80;;
19235;SDS011;9752;54.270;12.470;2022-12-07T20:48:10;4.63;;;4.33;;
19235;SDS011;9752;54.270;12.470;2022-12-07T20:53:12;5.10;;;4.90;;
19235;SDS011;9752;54.270;12.470;2022-12-07T20:58:15;6.00;;;5.80;;
19235;SDS011;9752;54.270;12.470;2022-12-07T21:03:17;5.67;;;5.37;;
19235;SDS011;9752;54.270;12.470;2022-12-07T21:08:19;5.50;;;5.30;;
19235;SDS011;9752;54.270;12.470;2022-12-07T21:13:22;5.70;;;5.20;;
19235;SDS011;9752;54.270;12.470;2022-12-07T21:18:24;5.30;;;5.00;;
19235;SDS011;9752;54.270;12.470;2022-12-07T21:23:26;4.73;;;4.40;;
19235;SDS011;9752;54.270;12.470;2022-12-07T21:28:29;5.37;;;4.97;;
19235;SDS011;9752;54.270;12.470;2022-12-07T21:33:31;5.17;;;4.97;;
19235;SDS011;9752;54.270;12.470;2022-12-07T21:38:32;5.57;;;5.10;;
19235;SDS011;9752;54.270;12.470;2022-12-07T21:43:35;5.80;;;5.60;;
19235;SDS011;9752;54.270;12.470;2022-12-07T21:48:37;6.03;;;5.70;;
19235;SDS011;9752;54.270;12.470;2022-12-07T21:53:40;5.77;;;5.57;;
19235;SDS011;9752;54.270;12.470;2022-12-07T21:58:44;6.30;;;6.10;;
19235;SDS011;9752;54.270;12.470;2022-12-07T22:03:46;8.40;;;7.53;;
19235;SDS011;9752;54.270;12.470;2022-12-07T22:08:48;7.90;;;7.50;;
19235;SDS011;9752;54.270;12.470;2022-12-07T22:13:54;7.80;;;7.13;;
19235;SDS011;9752;54.270;12.470;2022-12-07T22:19:13;6.67;;;6.37;;
19235;SDS011;9752;54.270;12.470;2022-12-07T22:24:14;6.60;;;6.20;;
19235;SDS011;9752;54.270;12.470;2022-12-07T22:29:17;5.90;;;5.60;;
19235;SDS011;9752;54.270;12.470;2022-12-07T22:34:20;7.23;;;6.17;;
19235;SDS011;9752;54.270;12.470;2022-12-07T22:39:22;6.60;;;6.20;;
19235;SDS011;9752;54.270;12.470;2022-12-07T22:44:25;6.13;;;5.83;;
19235;SDS011;9752;54.270;12.470;2022-12-07T22:49:27;6.33;;;5.90;;
19235;SDS011;9752;54.270;12.470;2022-12-07T22:54:28;6.00;;;5.80;;
19235;SDS011;9752;54.270;12.470;2022-12-07T22:59:31;5.37;;;5.17;;
19235;SDS011;9752;54.270;12.470;2022-12-07T23:04:33;6.10;;;5.60;;
19235;SDS011;9752;54.270;12.470;2022-12-07T23:09:35;6.07;;;5.70;;
19235;SDS011;9752;54.270;12.470;2022-12-07T23:14:38;6.30;;;5.70;;
19235;SDS011;9752;54.270;12.470;2022-12-07T23:19:39;5.40;;;5.20;;
19235;SDS011;9752;54.270;12.470;2022-12-07T23:24:41;5.97;;;5.57;;
19235;SDS011;9752;54.270;12.470;2022-12-07T23:29:44;5.97;;;5.57;;
19235;SDS011;9752;54.270;12.470;2022-12-07T23:34:46;6.90;;;6.07;;
19235;SDS011;9752;54.270;12.470;2022-12-07T23:39:47;6.60;;;5.70;;
19235;SDS011;9752;54.270;12.470;2022-12-07T23:44:50;6.27;;;5.00;;
19235;SDS011;9752;54.270;12.470;2022-12-07T23:49:52;5.50;;;5.10;;
19235;SDS011;9752;54.270;12.470;2022-12-07T23:54:54;4.37;;;4.07;;
19235;SDS011;9752;54.270;12.470;2022-12-07T23:59:57;4.10;;;3.80;;
